createdAt,value
2022-08-14T00:03:29.188Z,76.19
2022-08-14T00:19:05.480Z,77.02
2022-08-14T00:33:59.065Z,77.97
2022-08-14T00:49:21.198Z,78.58
2022-08-14T01:04:38.466Z,79.89
2022-08-14T01:20:08.568Z,81.40
2022-08-14T01:36:03.700Z,81.94
2022-08-14T01:50:55.689Z,82.94
2022-08-14T02:06:32.578Z,83.43
2022-08-14T02:21:24.375Z,84.26
2022-08-14T02:37:03.800Z,84.54
2022-08-14T02:51:55.278Z,86.03
2022-08-14T03:07:07.373Z,86.91
2022-08-14T03:22:17.711Z,88.20
2022-08-14T03:37:51.543Z,88.32
2022-08-14T03:52:47.869Z,88.91
2022-08-14T04:08:08.511Z,89.46
2022-08-14T04:23:29.107Z,89.88
2022-08-14T04:38:55.738Z,90.43
2022-08-14T04:54:01.540Z,90.95
2022-08-14T05:09:05.706Z,90.64
2022-08-14T05:24:17.572Z,90.37
2022-08-14T05:39:23.124Z,90.64
2022-08-14T05:54:27.517Z,89.27
2022-08-14T06:09:35.400Z,88.17
2022-08-14T06:24:44.119Z,86.04
2022-08-14T06:39:48.365Z,83.60
2022-08-14T06:54:52.774Z,81.81
2022-08-14T07:09:55.847Z,80.44
2022-08-14T07:24:59.404Z,78.83
2022-08-14T07:40:06.694Z,75.89
2022-08-14T07:55:15.354Z,70.14
2022-08-14T08:11:02.563Z,67.36
2022-08-14T08:25:56.546Z,65.79
2022-08-14T08:41:01.246Z,66.96
2022-08-14T08:56:04.828Z,66.10
2022-08-14T09:11:19.719Z,62.89
2022-08-14T09:26:28.558Z,62.22
2022-08-14T09:42:21.190Z,62.00
2022-08-14T09:57:27.706Z,59.33
2022-08-14T10:12:45.403Z,57.72
2022-08-14T10:27:57.159Z,56.46
2022-08-14T10:43:00.683Z,56.43
2022-08-14T10:58:04.687Z,55.62
2022-08-14T11:13:09.279Z,54.70
2022-08-14T11:28:19.491Z,54.84
2022-08-14T11:43:29.614Z,54.71
2022-08-14T11:58:37.331Z,54.68
2022-08-14T12:13:44.409Z,54.96
2022-08-14T12:29:16.376Z,54.75
2022-08-14T12:44:30.419Z,53.94
2022-08-14T12:59:37.273Z,53.52
2022-08-14T13:14:50.639Z,52.95
2022-08-14T13:29:59.211Z,54.07
2022-08-14T13:45:04.655Z,54.46
2022-08-14T14:00:14.587Z,54.23
2022-08-14T14:15:22.886Z,63.60
2022-08-14T14:30:51.723Z,67.92
2022-08-14T14:45:57.890Z,65.77
2022-08-14T15:01:03.890Z,74.96
2022-08-14T15:16:12.933Z,81.59
2022-08-14T15:31:16.636Z,89.63
2022-08-14T15:46:25.376Z,91.68
2022-08-14T16:01:54.087Z,92.12
2022-08-14T16:17:00.353Z,92.86
2022-08-14T16:47:34.763Z,97.99
2022-08-14T17:02:43.059Z,99.18
2022-08-14T17:17:57.790Z,99.96
2022-08-14T17:33:13.787Z,100.00
2022-08-14T17:49:14.970Z,100.00
2022-08-14T18:03:58.943Z,100.00
2022-08-14T18:19:12.178Z,100.00
2022-08-14T18:34:32.087Z,100.00
2022-08-14T18:50:01.512Z,100.00
2022-08-14T19:05:09.434Z,100.00
2022-08-14T19:20:19.010Z,100.00
2022-08-14T19:35:48.467Z,100.00
2022-08-14T19:51:02.222Z,100.00
2022-08-14T20:06:10.892Z,100.00
2022-08-14T20:21:17.233Z,100.00
2022-08-14T20:36:29.284Z,100.00
2022-08-14T20:52:04.810Z,100.00
2022-08-14T21:07:33.451Z,100.00
2022-08-14T21:22:38.177Z,100.00
2022-08-14T21:37:46.002Z,100.00
2022-08-14T21:53:01.024Z,100.00
2022-08-14T22:08:06.869Z,100.00
2022-08-14T22:23:12.788Z,100.00
2022-08-14T22:38:36.550Z,100.00
2022-08-14T22:53:40.204Z,100.00
2022-08-14T23:08:58.527Z,100.00
2022-08-14T23:24:05.962Z,100.00
2022-08-14T23:39:12.197Z,100.00
2022-08-14T23:54:48.741Z,100.00
